Terminal Aerodrome Forecast
Issued by NWS

Home | Current Version | Previous Version | Text Only | Print | Product List | Glossary On
Versions: 1 2 3 4 5 6 7 8 9 10 11 12 13 14 15 16 17 18 19
000
FTUS45 KTFX 300500
TAFHVR
TAF
KHVR 300530Z 3006/3106 VRB06KT P6SM SCT180
      TEMPO 3009/3013 1SM BR SCT008=

USA.gov is the U.S. government's official web portal to all federal, state and local government web resources and services.